createdAt,value
2022-09-15T00:00:51.781Z,12.88
2022-09-15T00:03:39.591Z,15.48
2022-09-15T00:06:07.405Z,19.80
2022-09-15T00:08:34.731Z,18.80
2022-09-15T00:11:08.769Z,16.08
2022-09-15T00:13:37.767Z,17.52
2022-09-15T00:16:05.623Z,16.92
2022-09-15T00:18:33.307Z,14.85
2022-09-15T00:21:00.373Z,14.25
2022-09-15T00:23:27.195Z,14.73
2022-09-15T00:25:54.010Z,14.23
2022-09-15T00:28:22.535Z,18.52
2022-09-15T00:30:52.332Z,15.65
2022-09-15T00:33:21.025Z,17.35
2022-09-15T00:35:50.417Z,15.05
2022-09-15T00:38:18.696Z,22.73
2022-09-15T00:40:51.355Z,14.68
2022-09-15T00:43:39.365Z,18.10
2022-09-15T00:46:06.303Z,15.43
2022-09-15T00:48:34.762Z,21.77
2022-09-15T00:51:04.381Z,18.52
2022-09-15T00:53:33.023Z,22.17
2022-09-15T00:56:01.643Z,16.05
2022-09-15T00:58:38.464Z,16.02
2022-09-15T01:01:08.258Z,18.45
2022-09-15T01:03:36.686Z,18.05
2022-09-15T01:06:15.682Z,21.38
2022-09-15T01:08:46.131Z,33.53
2022-09-15T01:11:16.975Z,19.38
2022-09-15T01:13:44.977Z,14.57
2022-09-15T01:16:31.620Z,22.02
2022-09-15T01:19:05.797Z,25.10
2022-09-15T01:21:52.194Z,17.90
2022-09-15T01:24:38.812Z,16.52
2022-09-15T01:27:41.472Z,19.25
2022-09-15T01:30:16.835Z,18.02
2022-09-15T01:33:05.459Z,24.23
2022-09-15T01:35:52.356Z,19.25
2022-09-15T01:38:31.727Z,22.27
2022-09-15T01:41:17.077Z,17.02
2022-09-15T01:44:05.603Z,16.33
2022-09-15T01:46:37.151Z,20.88
2022-09-15T01:49:06.858Z,19.48
2022-09-15T01:51:36.764Z,13.68
2022-09-15T01:54:05.926Z,18.73
2022-09-15T01:56:33.165Z,21.73
2022-09-15T01:59:00.321Z,20.60
2022-09-15T02:01:50.225Z,18.90
2022-09-15T02:04:27.833Z,16.48
2022-09-15T02:07:02.491Z,16.67
2022-09-15T02:09:37.593Z,16.48
2022-09-15T02:12:19.997Z,18.38
2022-09-15T02:14:57.679Z,23.90
2022-09-15T02:17:29.243Z,17.50
2022-09-15T02:20:03.630Z,18.33
2022-09-15T02:22:34.217Z,17.88
2022-09-15T02:25:07.243Z,17.75
2022-09-15T02:27:44.284Z,17.17
2022-09-15T02:30:14.757Z,15.88
2022-09-15T02:32:51.762Z,24.20
2022-09-15T02:35:19.048Z,15.00
2022-09-15T02:37:46.797Z,16.50
2022-09-15T02:40:13.721Z,18.90
2022-09-15T02:42:42.562Z,18.23
2022-09-15T02:45:09.894Z,18.85
2022-09-15T02:47:36.670Z,18.52
2022-09-15T02:50:03.972Z,20.13
2022-09-15T02:52:30.736Z,19.92
2022-09-15T02:54:57.561Z,17.45
2022-09-15T02:57:25.104Z,21.05
2022-09-15T03:00:10.282Z,25.60
2022-09-15T03:02:37.489Z,20.13
2022-09-15T03:05:04.656Z,19.23
2022-09-15T03:07:32.075Z,20.00
2022-09-15T03:09:59.242Z,26.05
2022-09-15T03:12:26.610Z,16.42
2022-09-15T03:14:53.434Z,20.45
2022-09-15T03:17:20.467Z,19.08
2022-09-15T03:19:47.469Z,22.52
2022-09-15T03:22:14.349Z,19.58
2022-09-15T03:24:42.497Z,20.52
2022-09-15T03:27:09.461Z,21.65
2022-09-15T03:29:36.256Z,20.20
2022-09-15T03:32:03.266Z,18.70
2022-09-15T03:34:30.257Z,25.40
2022-09-15T03:36:57.079Z,18.90
2022-09-15T03:39:24.414Z,22.70
2022-09-15T03:41:51.268Z,23.45
2022-09-15T03:44:18.160Z,18.48
2022-09-15T03:46:45.206Z,23.40
2022-09-15T03:49:12.010Z,20.30
2022-09-15T03:51:38.877Z,24.42
2022-09-15T03:54:06.050Z,21.98
2022-09-15T03:56:33.061Z,24.45
2022-09-15T03:59:04.705Z,23.02
2022-09-15T04:01:32.407Z,21.88
2022-09-15T04:03:59.400Z,21.00
2022-09-15T04:06:26.962Z,18.65
2022-09-15T04:08:54.783Z,21.55
2022-09-15T04:11:22.854Z,24.05
2022-09-15T04:13:50.136Z,26.25
2022-09-15T04:16:19.442Z,20.60
2022-09-15T04:18:46.520Z,20.30
2022-09-15T04:21:16.614Z,23.08
2022-09-15T04:23:45.226Z,21.37
2022-09-15T04:26:28.226Z,20.23
2022-09-15T04:28:55.736Z,27.10
2022-09-15T04:31:22.867Z,17.63
2022-09-15T04:33:52.947Z,21.20
2022-09-15T04:36:25.905Z,17.33
2022-09-15T04:38:52.947Z,17.50
2022-09-15T04:41:20.124Z,20.83
2022-09-15T04:43:47.374Z,22.38
2022-09-15T04:46:15.184Z,18.88
2022-09-15T04:48:43.227Z,24.27
2022-09-15T04:51:16.461Z,17.73
2022-09-15T04:53:44.444Z,18.48
2022-09-15T04:56:17.964Z,16.30
2022-09-15T04:58:51.487Z,18.30
2022-09-15T05:01:21.719Z,24.65
2022-09-15T05:03:49.936Z,21.23
2022-09-15T05:06:19.998Z,18.00
2022-09-15T05:08:48.326Z,18.85
2022-09-15T05:11:15.659Z,21.40
2022-09-15T05:13:43.666Z,16.40
2022-09-15T05:16:13.894Z,19.42
2022-09-15T05:18:42.543Z,15.25
2022-09-15T05:21:12.447Z,17.23
2022-09-15T05:23:39.966Z,17.80
2022-09-15T05:26:11.838Z,16.17
2022-09-15T05:28:38.920Z,21.70
2022-09-15T05:31:17.899Z,19.13
2022-09-15T05:33:45.965Z,19.17
2022-09-15T05:36:17.422Z,17.33
2022-09-15T05:41:13.921Z,12.80
2022-09-15T05:43:40.981Z,16.00
2022-09-15T05:46:08.142Z,18.63
2022-09-15T05:48:35.903Z,13.68
2022-09-15T05:51:03.919Z,18.33
2022-09-15T05:53:31.197Z,16.15
2022-09-15T05:56:00.317Z,19.38
2022-09-15T05:58:28.052Z,15.38
2022-09-15T06:00:55.634Z,17.25
2022-09-15T06:03:27.459Z,18.83
2022-09-15T06:06:02.311Z,23.55
2022-09-15T06:08:39.681Z,20.15
2022-09-15T06:11:15.691Z,18.77
2022-09-15T06:13:44.052Z,18.98
2022-09-15T06:16:14.599Z,13.13
2022-09-15T06:18:41.913Z,16.83
2022-09-15T06:21:21.857Z,20.42
2022-09-15T06:23:56.736Z,20.10
2022-09-15T06:26:24.944Z,15.93
2022-09-15T06:28:57.705Z,21.73
2022-09-15T06:31:26.783Z,18.77
2022-09-15T06:33:56.122Z,11.38
2022-09-15T06:36:26.448Z,19.70
2022-09-15T06:38:54.413Z,12.73
2022-09-15T06:41:22.758Z,12.90
2022-09-15T06:43:49.725Z,10.77
2022-09-15T06:46:20.833Z,13.40
2022-09-15T06:48:48.962Z,14.13
2022-09-15T06:51:17.760Z,14.80
2022-09-15T06:53:46.967Z,13.68
2022-09-15T06:56:20.582Z,12.80
2022-09-15T06:58:50.961Z,14.35
2022-09-15T07:01:31.558Z,10.73
2022-09-15T07:04:01.036Z,8.25
2022-09-15T07:06:30.628Z,9.45
2022-09-15T07:08:58.669Z,10.38
2022-09-15T07:11:25.793Z,11.27
2022-09-15T07:13:53.267Z,16.27
2022-09-15T07:16:21.203Z,9.45
2022-09-15T07:18:49.118Z,15.65
2022-09-15T07:21:19.924Z,11.82
2022-09-15T07:23:48.291Z,10.82
2022-09-15T07:26:15.102Z,10.45
2022-09-15T07:28:46.852Z,12.38
2022-09-15T07:31:17.177Z,8.83
2022-09-15T07:33:45.085Z,19.23
2022-09-15T07:36:12.557Z,8.63
2022-09-15T07:38:41.996Z,12.85
2022-09-15T07:41:20.224Z,17.95
2022-09-15T07:43:52.232Z,12.07
2022-09-15T07:46:22.278Z,9.50
2022-09-15T07:48:51.290Z,10.10
2022-09-15T07:51:19.296Z,7.47
2022-09-15T07:53:48.373Z,9.95
2022-09-15T07:56:18.758Z,9.43
2022-09-15T07:58:47.030Z,8.18
2022-09-15T08:01:15.217Z,8.57
2022-09-15T08:03:46.309Z,12.05
2022-09-15T08:06:13.733Z,7.47
2022-09-15T08:08:44.075Z,7.28
2022-09-15T08:11:18.545Z,12.25
2022-09-15T08:13:47.199Z,14.00
2022-09-15T08:16:18.007Z,6.47
2022-09-15T08:18:45.539Z,9.00
2022-09-15T08:21:17.177Z,10.00
2022-09-15T08:26:14.391Z,7.40
2022-09-15T08:28:42.416Z,7.68
2022-09-15T08:31:11.657Z,7.82
2022-09-15T08:33:44.559Z,9.35
2022-09-15T08:36:13.362Z,5.53
2022-09-15T08:38:41.540Z,9.00
2022-09-15T08:41:17.096Z,10.73
2022-09-15T08:43:51.554Z,8.50
2022-09-15T08:46:24.968Z,5.03
2022-09-15T08:49:02.891Z,7.45
2022-09-15T08:51:40.920Z,4.82
2022-09-15T08:54:16.808Z,7.97
2022-09-15T08:56:44.541Z,5.15
2022-09-15T08:59:14.972Z,6.43
2022-09-15T09:01:55.926Z,9.32
2022-09-15T09:04:59.993Z,6.50
2022-09-15T09:07:54.661Z,5.53
2022-09-15T09:10:29.343Z,4.82
2022-09-15T09:13:13.968Z,4.57
2022-09-15T09:16:09.811Z,8.15
2022-09-15T09:18:47.110Z,8.27
2022-09-15T09:21:20.727Z,5.70
2022-09-15T09:23:54.744Z,6.22
2022-09-15T09:26:21.906Z,5.07
2022-09-15T09:29:19.140Z,6.28
2022-09-15T09:31:49.425Z,5.47
2022-09-15T09:34:42.595Z,5.70
2022-09-15T09:37:13.001Z,8.60
2022-09-15T09:39:40.065Z,6.18
2022-09-15T09:42:14.320Z,4.03
2022-09-15T09:44:42.417Z,4.75
2022-09-15T09:47:10.145Z,4.18
2022-09-15T09:49:48.403Z,8.93
2022-09-15T09:52:37.081Z,6.43
2022-09-15T09:55:21.090Z,5.03
2022-09-15T09:57:48.327Z,6.45
2022-09-15T10:00:33.679Z,2.72
2022-09-15T10:03:21.802Z,8.52
2022-09-15T10:06:02.209Z,8.73
2022-09-15T10:08:29.438Z,4.15
2022-09-15T10:11:03.245Z,5.90
2022-09-15T10:13:30.468Z,7.07
2022-09-15T10:16:01.952Z,2.78
2022-09-15T10:21:01.856Z,2.53
2022-09-15T10:23:34.155Z,18.83
2022-09-15T10:26:16.828Z,3.28
2022-09-15T10:28:45.581Z,5.13
2022-09-15T10:31:26.955Z,4.82
2022-09-15T10:33:54.120Z,6.28
2022-09-15T10:36:40.217Z,5.38
2022-09-15T10:39:28.781Z,6.53
2022-09-15T10:42:53.388Z,6.88
2022-09-15T10:45:40.301Z,7.32
2022-09-15T10:48:35.168Z,16.58
2022-09-15T10:51:19.072Z,4.43
2022-09-15T10:54:28.062Z,5.55
2022-09-15T10:57:08.903Z,10.32
2022-09-15T11:00:00.514Z,5.10
2022-09-15T11:02:42.192Z,12.30
2022-09-15T11:05:40.985Z,3.75
2022-09-15T11:08:31.087Z,7.72
2022-09-15T11:11:19.152Z,9.82
2022-09-15T11:13:56.045Z,6.40
2022-09-15T11:16:54.467Z,8.90
2022-09-15T11:19:43.044Z,6.18
2022-09-15T11:22:22.584Z,7.32
2022-09-15T11:24:53.896Z,8.18
2022-09-15T11:29:47.621Z,3.92
2022-09-15T11:32:24.391Z,2.45
2022-09-15T11:35:03.199Z,5.32
2022-09-15T11:37:38.640Z,7.40
2022-09-15T11:40:22.051Z,6.28
2022-09-15T11:42:56.113Z,7.95
2022-09-15T11:45:32.647Z,10.65
2022-09-15T11:48:24.306Z,8.38
2022-09-15T11:50:55.701Z,7.05
2022-09-15T11:53:32.479Z,3.15
2022-09-15T11:56:32.687Z,4.20
2022-09-15T11:59:32.657Z,4.55
2022-09-15T12:02:57.444Z,6.55
2022-09-15T12:05:30.117Z,5.60
2022-09-15T12:08:21.244Z,7.57
2022-09-15T12:10:55.044Z,8.38
2022-09-15T12:13:24.690Z,13.68
2022-09-15T12:15:52.565Z,8.88
2022-09-15T12:18:40.125Z,5.72
2022-09-15T12:21:32.115Z,9.15
2022-09-15T12:24:14.819Z,4.93
2022-09-15T12:26:46.371Z,3.42
2022-09-15T12:29:22.395Z,5.30
2022-09-15T12:32:12.291Z,7.55
2022-09-15T12:34:39.210Z,8.35
2022-09-15T12:37:16.171Z,5.82
2022-09-15T12:39:45.294Z,3.90
2022-09-15T12:42:18.744Z,3.40
2022-09-15T12:44:52.728Z,6.22
2022-09-15T12:47:25.596Z,10.05
2022-09-15T12:49:56.624Z,6.68
2022-09-15T12:52:25.444Z,6.33
2022-09-15T12:55:01.525Z,8.25
2022-09-15T12:57:37.003Z,4.07
2022-09-15T13:00:42.353Z,5.60
2022-09-15T13:03:28.457Z,6.35
2022-09-15T13:06:10.328Z,6.13
2022-09-15T13:08:37.388Z,5.53
2022-09-15T13:11:15.212Z,5.30
2022-09-15T13:13:48.274Z,4.47
2022-09-15T13:16:30.911Z,7.93
2022-09-15T13:19:07.272Z,9.05
2022-09-15T13:21:37.730Z,7.85
2022-09-15T13:24:12.366Z,4.67
2022-09-15T13:26:42.245Z,4.53
2022-09-15T13:29:15.296Z,7.18
2022-09-15T13:31:48.068Z,4.72
2022-09-15T13:41:01.376Z,6.80
2022-09-15T13:43:50.084Z,4.28
2022-09-15T13:46:50.177Z,8.15
2022-09-15T13:49:29.271Z,7.47
2022-09-15T13:52:14.388Z,9.40
2022-09-15T13:55:17.358Z,9.18
2022-09-15T14:00:45.011Z,7.00
2022-09-15T14:03:17.647Z,4.63
2022-09-15T14:05:45.585Z,6.80
2022-09-15T14:08:20.158Z,5.40
2022-09-15T14:10:54.590Z,5.70
2022-09-15T14:13:24.424Z,6.55
2022-09-15T14:16:11.786Z,6.13
2022-09-15T14:18:45.177Z,5.63
2022-09-15T14:21:24.096Z,4.65
2022-09-15T14:23:53.475Z,4.25
2022-09-15T14:26:29.078Z,6.05
2022-09-15T14:29:02.115Z,3.55
2022-09-15T14:31:35.578Z,5.00
2022-09-15T14:34:06.511Z,6.07
2022-09-15T14:36:34.516Z,4.82
2022-09-15T14:39:08.839Z,9.70
2022-09-15T14:41:36.872Z,5.07
2022-09-15T14:47:22.541Z,9.75
2022-09-15T14:49:49.949Z,5.55
2022-09-15T14:52:27.210Z,7.00
2022-09-15T14:55:03.001Z,14.52
2022-09-15T14:57:36.200Z,7.35
2022-09-15T15:00:09.998Z,4.50
2022-09-15T15:02:55.667Z,4.35
2022-09-15T15:05:35.423Z,4.93
2022-09-15T15:08:06.391Z,4.53
2022-09-15T15:10:35.992Z,4.20
2022-09-15T15:13:12.222Z,5.30
2022-09-15T15:15:39.770Z,6.82
2022-09-15T15:18:31.699Z,4.53
2022-09-15T15:20:59.195Z,5.35
2022-09-15T15:23:26.972Z,4.97
2022-09-15T15:25:54.142Z,6.80
2022-09-15T15:28:36.010Z,4.38
2022-09-15T15:31:15.344Z,5.60
2022-09-15T15:33:52.318Z,5.53
2022-09-15T15:36:24.676Z,6.43
2022-09-15T15:38:54.405Z,6.35
2022-09-15T15:41:23.568Z,4.63
2022-09-15T15:44:27.547Z,4.25
2022-09-15T15:47:12.601Z,6.57
2022-09-15T15:49:56.217Z,6.68
2022-09-15T15:52:26.729Z,8.13
2022-09-15T15:54:53.566Z,9.95
2022-09-15T15:57:22.377Z,5.03
2022-09-15T15:59:53.971Z,6.97
2022-09-15T16:02:22.533Z,4.05
2022-09-15T16:04:49.672Z,5.05
2022-09-15T16:07:19.232Z,7.55
2022-09-15T16:09:48.231Z,6.65
2022-09-15T16:12:16.568Z,5.57
2022-09-15T16:14:43.661Z,5.00
2022-09-15T16:17:10.918Z,6.43
2022-09-15T16:19:37.841Z,6.07
2022-09-15T16:22:05.229Z,8.65
2022-09-15T16:24:32.236Z,7.65
2022-09-15T16:26:59.006Z,7.40
2022-09-15T16:29:29.923Z,6.88
2022-09-15T16:31:57.119Z,9.60
2022-09-15T16:34:23.992Z,5.13
2022-09-15T16:36:51.017Z,5.32
2022-09-15T16:39:18.040Z,8.43
2022-09-15T16:41:44.895Z,7.00
2022-09-15T16:44:18.339Z,6.95
2022-09-15T16:46:45.812Z,8.98
2022-09-15T16:49:12.971Z,8.52
2022-09-15T16:51:39.893Z,5.72
2022-09-15T16:54:18.606Z,7.40
2022-09-15T16:56:46.299Z,9.10
2022-09-15T16:59:13.169Z,4.57
2022-09-15T17:01:40.415Z,8.85
2022-09-15T17:04:16.936Z,7.15
2022-09-15T17:06:43.926Z,9.68
2022-09-15T17:09:12.225Z,8.35
2022-09-15T17:11:39.161Z,4.53
2022-09-15T17:14:06.546Z,8.73
2022-09-15T17:16:33.562Z,6.18
2022-09-15T17:19:00.593Z,4.78
2022-09-15T17:21:27.643Z,4.45
2022-09-15T17:23:54.644Z,12.25
2022-09-15T17:26:27.585Z,10.32
2022-09-15T17:28:58.566Z,9.20
2022-09-15T17:31:26.072Z,8.95
2022-09-15T17:33:53.372Z,9.77
2022-09-15T17:36:20.863Z,9.38
2022-09-15T17:38:50.438Z,7.80
2022-09-15T17:41:20.239Z,7.72
2022-09-15T17:46:16.527Z,7.75
2022-09-15T17:48:43.618Z,6.82
2022-09-15T17:51:17.472Z,8.88
2022-09-15T17:53:46.939Z,11.95
2022-09-15T17:56:14.473Z,8.68
2022-09-15T17:58:42.646Z,6.30
2022-09-15T18:01:13.460Z,6.03
2022-09-15T18:03:45.665Z,10.48
2022-09-15T18:06:13.638Z,11.18
2022-09-15T18:08:41.128Z,7.43
2022-09-15T18:11:08.499Z,12.68
2022-09-15T18:13:36.126Z,9.95
2022-09-15T18:16:11.078Z,9.93
2022-09-15T18:18:40.229Z,11.80
2022-09-15T18:21:24.550Z,7.40
2022-09-15T18:23:51.940Z,8.75
2022-09-15T18:26:21.642Z,10.25
2022-09-15T18:28:54.667Z,11.63
2022-09-15T18:31:22.095Z,9.68
2022-09-15T18:33:49.198Z,7.13
2022-09-15T18:36:16.740Z,7.72
2022-09-15T18:38:43.989Z,6.13
2022-09-15T18:41:11.884Z,13.85
2022-09-15T18:43:39.041Z,12.23
2022-09-15T18:46:06.226Z,8.20
2022-09-15T18:48:33.492Z,12.02
2022-09-15T18:51:00.606Z,8.25
2022-09-15T18:53:27.574Z,10.77
2022-09-15T18:55:54.847Z,11.40
2022-09-15T18:58:22.737Z,9.40
2022-09-15T19:00:50.134Z,11.32
2022-09-15T19:03:17.032Z,11.45
2022-09-15T19:05:45.767Z,8.57
2022-09-15T19:08:12.964Z,10.13
2022-09-15T19:10:42.805Z,12.18
2022-09-15T19:13:12.170Z,14.38
2022-09-15T19:15:40.271Z,13.10
2022-09-15T19:18:07.416Z,10.40
2022-09-15T19:20:34.770Z,7.63
2022-09-15T19:23:01.602Z,7.60
2022-09-15T19:25:28.823Z,14.85
2022-09-15T19:27:55.946Z,10.15
2022-09-15T19:30:23.340Z,12.20
2022-09-15T19:32:50.254Z,10.00
2022-09-15T19:35:17.447Z,10.20
2022-09-15T19:37:44.398Z,10.15
2022-09-15T19:40:14.311Z,12.07
2022-09-15T19:42:42.817Z,10.32
2022-09-15T19:45:11.794Z,11.27
2022-09-15T19:47:39.450Z,11.07
2022-09-15T19:50:08.883Z,10.80
2022-09-15T19:52:35.863Z,8.75
2022-09-15T19:55:04.606Z,7.85
2022-09-15T19:57:31.672Z,12.40
2022-09-15T19:59:58.844Z,8.18
2022-09-15T20:02:26.585Z,9.82
2022-09-15T20:07:39.442Z,11.13
2022-09-15T20:10:07.662Z,8.65
2022-09-15T20:12:35.569Z,11.75
2022-09-15T20:15:02.865Z,9.85
2022-09-15T20:17:30.696Z,6.82
2022-09-15T20:19:58.016Z,10.52
2022-09-15T20:22:25.916Z,10.73
2022-09-15T20:24:53.312Z,7.95
2022-09-15T20:27:20.332Z,8.30
2022-09-15T20:29:48.411Z,9.40
2022-09-15T20:32:15.866Z,7.95
2022-09-15T20:34:43.523Z,13.45
2022-09-15T20:37:11.158Z,7.70
2022-09-15T20:39:56.926Z,8.07
2022-09-15T20:42:24.404Z,5.63
2022-09-15T20:44:51.929Z,11.80
2022-09-15T20:47:19.042Z,5.85
2022-09-15T20:49:46.692Z,6.32
2022-09-15T20:52:15.774Z,8.95
2022-09-15T20:54:43.279Z,6.05
2022-09-15T20:57:10.923Z,6.88
2022-09-15T20:59:38.112Z,11.30
2022-09-15T21:02:06.608Z,7.93
2022-09-15T21:04:34.221Z,8.70
2022-09-15T21:07:01.692Z,6.40
2022-09-15T21:09:28.819Z,10.40
2022-09-15T21:11:56.357Z,10.70
2022-09-15T21:14:23.711Z,7.90
2022-09-15T21:16:51.143Z,11.48
2022-09-15T21:19:18.429Z,6.28
2022-09-15T21:21:45.676Z,8.98
2022-09-15T21:24:12.993Z,9.45
2022-09-15T21:27:00.219Z,9.60
2022-09-15T21:29:28.109Z,7.82
2022-09-15T21:31:56.431Z,12.57
2022-09-15T21:34:24.114Z,8.50
2022-09-15T21:36:53.664Z,6.15
2022-09-15T21:39:21.575Z,7.72
2022-09-15T21:41:48.797Z,8.55
2022-09-15T21:44:16.084Z,8.02
2022-09-15T21:46:47.054Z,11.65
2022-09-15T21:49:14.931Z,11.10
2022-09-15T21:51:42.031Z,10.48
2022-09-15T21:54:10.069Z,9.43
2022-09-15T21:56:37.633Z,6.75
2022-09-15T21:59:05.474Z,9.52
2022-09-15T22:01:33.652Z,12.50
2022-09-15T22:04:03.810Z,6.70
2022-09-15T22:06:41.375Z,8.55
2022-09-15T22:09:14.763Z,9.35
2022-09-15T22:11:42.499Z,11.25
2022-09-15T22:14:11.740Z,10.20
2022-09-15T22:16:40.355Z,8.30
2022-09-15T22:19:09.834Z,10.13
2022-09-15T22:21:39.562Z,8.77
2022-09-15T22:24:07.248Z,12.60
2022-09-15T22:26:37.053Z,9.65
2022-09-15T22:29:05.445Z,12.32
2022-09-15T22:31:34.042Z,8.00
2022-09-15T22:34:01.307Z,11.00
2022-09-15T22:36:30.496Z,10.85
2022-09-15T22:39:05.434Z,12.05
2022-09-15T22:41:37.169Z,8.93
2022-09-15T22:44:05.694Z,7.50
2022-09-15T22:46:33.485Z,11.75
2022-09-15T22:49:01.073Z,12.57
2022-09-15T22:51:28.278Z,11.05
2022-09-15T22:53:57.360Z,9.57
2022-09-15T22:56:26.408Z,9.32
2022-09-15T22:58:55.653Z,9.38
2022-09-15T23:01:25.140Z,12.15
2022-09-15T23:03:57.414Z,9.77
2022-09-15T23:06:27.409Z,10.73
2022-09-15T23:08:57.510Z,10.93
2022-09-15T23:11:25.993Z,9.02
2022-09-15T23:13:53.861Z,10.55
2022-09-15T23:16:22.153Z,7.65
2022-09-15T23:18:50.524Z,9.88
2022-09-15T23:21:17.490Z,9.80
2022-09-15T23:23:47.313Z,8.70
2022-09-15T23:26:17.589Z,9.97
2022-09-15T23:28:44.484Z,12.38
2022-09-15T23:31:13.008Z,9.27
2022-09-15T23:33:40.317Z,9.50
2022-09-15T23:36:10.772Z,8.82
2022-09-15T23:38:40.200Z,8.00
2022-09-15T23:41:08.280Z,10.18
2022-09-15T23:43:35.603Z,11.90
2022-09-15T23:46:03.525Z,10.18
2022-09-15T23:48:33.635Z,10.25
2022-09-15T23:51:00.986Z,9.48
2022-09-15T23:53:29.091Z,8.95
2022-09-15T23:55:56.519Z,9.70
2022-09-15T23:58:23.516Z,12.00
